Time;durP1;ratioP1;P1;durP2;ratioP2;P2;SDS_P1;SDS_P2;PMS_P1;PMS_P2;Temp;Humidity;BMP_temperature;BMP_pressure;BME280_temperature;BME280_humidity;BME280_pressure;Samples;Min_cycle;Max_cycle;Signal;HPM_P1;HPM_P2
2021/11/22 00:01:00;;;;;;;1.27;0.60;;;;;;;;;;5014840;28;20094;-60
2021/11/22 00:03:31;;;;;;;1.17;0.50;;;;;;;;;;5019062;28;20127;-61
2021/11/22 00:05:56;;;;;;;2.15;0.50;;;;;;;;;;5032412;28;20037;-60
2021/11/22 00:08:22;;;;;;;6.55;0.75;;;;;;;;;;5015996;28;20542;-62
2021/11/22 00:10:48;;;;;;;0.32;0.22;;;;;;;;;;5016566;28;20045;-60
2021/11/22 00:13:19;;;;;;;2.88;0.43;;;;;;;;;;5016910;28;20025;-60
2021/11/22 00:15:44;;;;;;;2.83;0.43;;;;;;;;;;5018595;28;20033;-61
2021/11/22 00:18:14;;;;;;;6.15;0.80;;;;;;;;;;5020393;28;20053;-61
2021/11/22 00:20:42;;;;;;;4.00;0.52;;;;;;;;;;5017502;28;20028;-61
2021/11/22 00:23:07;;;;;;;0.70;0.32;;;;;;;;;;5015115;28;20578;-61
2021/11/22 00:25:33;;;;;;;1.98;0.50;;;;;;;;;;5017557;28;20749;-61
2021/11/22 00:28:03;;;;;;;1.58;0.52;;;;;;;;;;5021324;28;20034;-61
2021/11/22 00:30:29;;;;;;;3.17;0.35;;;;;;;;;;5002388;28;20045;-60
2021/11/22 00:32:57;;;;;;;9.75;0.47;;;;;;;;;;5018618;28;20104;-59
2021/11/22 00:35:32;;;;;;;10.68;1.17;;;;;;;;;;5002559;28;20025;-60
2021/11/22 00:37:57;;;;;;;;;;;;;;;;;;5016232;28;20029;-59
2021/11/22 00:40:23;;;;;;;2.63;0.57;;;;;;;;;;5015484;28;19923;-61
2021/11/22 00:42:53;;;;;;;0.30;0.28;;;;;;;;;;5016643;28;20030;-61
2021/11/22 00:45:22;;;;;;;6.60;0.57;;;;;;;;;;5019586;28;20068;-60
2021/11/22 00:47:48;;;;;;;3.42;0.40;;;;;;;;;;5017678;28;20077;-60
2021/11/22 00:50:16;;;;;;;2.15;0.03;;;;;;;;;;5015680;28;20073;-59
2021/11/22 00:52:43;;;;;;;2.22;0.45;;;;;;;;;;4990159;28;20045;-60
2021/11/22 00:55:13;;;;;;;0.93;0.40;;;;;;;;;;5018237;28;20052;-60
2021/11/22 00:57:44;;;;;;;1.15;0.50;;;;;;;;;;5019875;28;21095;-60
2021/11/22 01:00:13;;;;;;;4.20;0.30;;;;;;;;;;5017469;28;20035;-60
2021/11/22 01:02:41;;;;;;;5.97;0.50;;;;;;;;;;5022460;28;20039;-60
2021/11/22 01:05:09;;;;;;;0.85;0.30;;;;;;;;;;5024096;28;20128;-60
2021/11/22 01:07:39;;;;;;;1.20;0.35;;;;;;;;;;5017456;28;20563;-60
2021/11/22 01:10:09;;;;;;;0.25;0.20;;;;;;;;;;5015675;28;20095;-60
2021/11/22 01:12:37;;;;;;;1.70;0.43;;;;;;;;;;5017748;28;20024;-60
2021/11/22 01:15:05;;;;;;;0.40;0.28;;;;;;;;;;5017561;28;20084;-61
2021/11/22 01:17:36;;;;;;;0.43;0.35;;;;;;;;;;5015907;28;20034;-61
2021/11/22 01:20:10;;;;;;;1.67;0.63;;;;;;;;;;5017690;28;20116;-60
2021/11/22 01:22:37;;;;;;;3.00;0.28;;;;;;;;;;5023205;28;20641;-60
2021/11/22 01:25:06;;;;;;;4.70;0.43;;;;;;;;;;5004799;28;20029;-60
2021/11/22 01:27:31;;;;;;;0.00;0.00;;;;;;;;;;5019503;28;20043;-61
2021/11/22 01:29:59;;;;;;;8.07;0.50;;;;;;;;;;5024068;28;20032;-60
2021/11/22 01:32:25;;;;;;;6.25;0.30;;;;;;;;;;5016018;28;20025;-59
2021/11/22 01:34:51;;;;;;;0.43;0.25;;;;;;;;;;5017272;28;20040;-61
2021/11/22 01:37:17;;;;;;;2.00;0.20;;;;;;;;;;5001089;28;20044;-60
2021/11/22 01:39:43;;;;;;;2.35;0.40;;;;;;;;;;5000848;28;20038;-61
2021/11/22 01:42:15;;;;;;;3.70;0.47;;;;;;;;;;5023046;28;20037;-61
2021/11/22 01:44:41;;;;;;;1.10;0.65;;;;;;;;;;5018910;28;20033;-61
2021/11/22 01:47:06;;;;;;;2.50;0.47;;;;;;;;;;4995419;28;20103;-60
2021/11/22 01:49:32;;;;;;;7.32;0.55;;;;;;;;;;5020708;28;20045;-61
2021/11/22 01:52:00;;;;;;;1.85;0.50;;;;;;;;;;5015979;28;20061;-61
2021/11/22 01:54:25;;;;;;;5.60;0.32;;;;;;;;;;5013924;28;20042;-60
2021/11/22 01:56:50;;;;;;;0.55;0.30;;;;;;;;;;5015408;28;20736;-61
2021/11/22 01:59:24;;;;;;;1.40;0.20;;;;;;;;;;5015164;28;20029;-61
2021/11/22 02:01:51;;;;;;;3.72;0.70;;;;;;;;;;5014937;28;20475;-60
2021/11/22 02:04:19;;;;;;;1.42;0.50;;;;;;;;;;5015526;28;20044;-61
2021/11/22 02:06:49;;;;;;;0.45;0.35;;;;;;;;;;5013005;28;20032;-61
2021/11/22 02:09:19;;;;;;;0.47;0.20;;;;;;;;;;5014764;28;20436;-61
2021/11/22 02:11:44;;;;;;;2.05;0.40;;;;;;;;;;5015827;28;20086;-60
2021/11/22 02:14:14;;;;;;;3.47;0.60;;;;;;;;;;5011974;28;20025;-61
2021/11/22 02:16:40;;;;;;;0.25;0.20;;;;;;;;;;5015037;28;20037;-60
2021/11/22 02:19:10;;;;;;;7.13;0.55;;;;;;;;;;5019855;28;20041;-60
2021/11/22 02:21:40;;;;;;;2.47;0.35;;;;;;;;;;5001477;28;20067;-60
2021/11/22 02:24:06;;;;;;;3.53;0.60;;;;;;;;;;5016139;28;20042;-61
2021/11/22 02:26:36;;;;;;;0.85;0.45;;;;;;;;;;5011621;28;20037;-61
2021/11/22 02:29:02;;;;;;;3.40;0.50;;;;;;;;;;5014406;28;20041;-61
2021/11/22 02:31:30;;;;;;;8.02;0.45;;;;;;;;;;5013106;28;20037;-60
2021/11/22 02:34:07;;;;;;;1.02;0.38;;;;;;;;;;5006879;28;20810;-60
2021/11/22 02:36:35;;;;;;;0.82;0.30;;;;;;;;;;5021682;28;20041;-60
2021/11/22 02:39:03;;;;;;;1.35;0.98;;;;;;;;;;5014514;28;20044;-61
2021/11/22 02:41:56;;;;;;;1.23;0.47;;;;;;;;;;5015554;28;20045;-60
2021/11/22 02:44:24;;;;;;;1.92;0.10;;;;;;;;;;5015168;28;20084;-61
2021/11/22 02:46:52;;;;;;;4.80;0.40;;;;;;;;;;5015255;28;20025;-61
2021/11/22 02:49:17;;;;;;;2.67;0.45;;;;;;;;;;5015240;28;20068;-60
2021/11/22 02:51:47;;;;;;;9.43;0.65;;;;;;;;;;5015595;28;20672;-60
2021/11/22 02:54:14;;;;;;;1.42;1.33;;;;;;;;;;5001057;28;20101;-61
2021/11/22 02:56:43;;;;;;;2.55;0.32;;;;;;;;;;5015114;28;20029;-60
2021/11/22 02:59:08;;;;;;;3.78;0.50;;;;;;;;;;5014645;28;20032;-60
2021/11/22 03:01:36;;;;;;;4.00;0.30;;;;;;;;;;5013491;28;20095;-60
2021/11/22 03:04:04;;;;;;;3.17;0.40;;;;;;;;;;5006882;28;20038;-62
2021/11/22 03:06:32;;;;;;;0.35;0.13;;;;;;;;;;5014562;28;20068;-62
2021/11/22 03:09:02;;;;;;;0.30;0.30;;;;;;;;;;5012987;28;20072;-60
2021/11/22 03:11:27;;;;;;;1.70;0.35;;;;;;;;;;5014234;28;20033;-60
2021/11/22 03:13:55;;;;;;;4.82;0.50;;;;;;;;;;5014075;28;20031;-62
2021/11/22 03:16:24;;;;;;;0.15;0.13;;;;;;;;;;4985256;28;20025;-60
2021/11/22 03:18:54;;;;;;;1.20;0.50;;;;;;;;;;5012860;28;20075;-61
2021/11/22 03:21:22;;;;;;;5.72;0.43;;;;;;;;;;5015106;28;20129;-61
2021/11/22 03:23:52;;;;;;;3.40;0.38;;;;;;;;;;5011507;28;20037;-60
2021/11/22 03:26:22;;;;;;;0.63;0.22;;;;;;;;;;4998635;28;20120;-60
2021/11/22 03:28:51;;;;;;;2.15;0.45;;;;;;;;;;5012366;28;20086;-59
2021/11/22 03:31:19;;;;;;;3.97;0.68;;;;;;;;;;5016269;28;20083;-61
2021/11/22 03:33:47;;;;;;;0.85;0.32;;;;;;;;;;5013198;28;20072;-61
2021/11/22 03:36:15;;;;;;;0.52;0.22;;;;;;;;;;4998536;28;20051;-61
2021/11/22 03:38:46;;;;;;;0.52;0.22;;;;;;;;;;5019760;28;20029;-61
2021/11/22 03:41:14;;;;;;;2.90;0.45;;;;;;;;;;5016500;28;20087;-60
2021/11/22 03:44:40;;;;;;;1.58;0.40;;;;;;;;;;5018054;28;20033;-60
2021/11/22 03:46:37;;;;;;;0.32;0.30;;;;;;;;;;5011938;28;20076;-60
2021/11/22 03:49:05;;;;;;;0.90;0.28;;;;;;;;;;5015396;28;20121;-59
2021/11/22 03:51:36;;;;;;;2.25;0.28;;;;;;;;;;5013405;28;20037;-60
2021/11/22 03:57:32;;;;;;;0.13;0.13;;;;;;;;;;5015042;28;20026;-60
2021/11/22 04:00:00;;;;;;;3.15;0.30;;;;;;;;;;5017538;28;20215;-59
2021/11/22 04:02:33;;;;;;;1.00;0.75;;;;;;;;;;5017187;28;20599;-60
2021/11/22 04:05:09;;;;;;;0.47;0.28;;;;;;;;;;5018735;28;21300;-60
2021/11/22 04:07:37;;;;;;;1.15;0.30;;;;;;;;;;5019004;28;20034;-61
2021/11/22 04:10:03;;;;;;;0.65;0.65;;;;;;;;;;5016658;28;20744;-61
2021/11/22 04:12:31;;;;;;;0.28;0.20;;;;;;;;;;5023492;28;20432;-59
2021/11/22 04:14:59;;;;;;;3.22;0.55;;;;;;;;;;5022333;28;20610;-59
2021/11/22 04:17:27;;;;;;;1.05;0.15;;;;;;;;;;5018306;28;20060;-62
2021/11/22 04:19:55;;;;;;;1.85;0.32;;;;;;;;;;5024247;28;20764;-60
2021/11/22 04:22:20;;;;;;;0.43;0.20;;;;;;;;;;5006759;28;20041;-60
2021/11/22 04:24:46;;;;;;;0.93;0.60;;;;;;;;;;5018188;28;21427;-61
2021/11/22 04:27:14;;;;;;;1.17;0.50;;;;;;;;;;5020101;28;20040;-61
2021/11/22 04:29:41;;;;;;;2.72;0.73;;;;;;;;;;5021191;28;20033;-60
2021/11/22 04:32:11;;;;;;;6.93;0.68;;;;;;;;;;5015715;28;20029;-61
2021/11/22 04:34:38;;;;;;;0.30;0.30;;;;;;;;;;5016802;28;20132;-60
2021/11/22 04:37:03;;;;;;;1.48;0.70;;;;;;;;;;5018117;28;20388;-60
2021/11/22 04:39:35;;;;;;;0.20;0.20;;;;;;;;;;5016513;28;20032;-61
2021/11/22 04:42:01;;;;;;;3.58;0.50;;;;;;;;;;5017428;28;20036;-62
2021/11/22 04:44:26;;;;;;;0.70;0.20;;;;;;;;;;5000625;28;20025;-60
2021/11/22 04:46:54;;;;;;;2.53;0.68;;;;;;;;;;5016404;28;20985;-60
2021/11/22 04:49:22;;;;;;;1.73;0.60;;;;;;;;;;5018545;28;20025;-59
2021/11/22 04:51:50;;;;;;;1.05;0.55;;;;;;;;;;5004345;28;20085;-61
2021/11/22 04:54:21;;;;;;;2.83;0.85;;;;;;;;;;5014070;28;20564;-60
2021/11/22 04:56:46;;;;;;;3.10;0.80;;;;;;;;;;5017208;28;20029;-60
2021/11/22 04:59:14;;;;;;;1.90;0.40;;;;;;;;;;5017207;28;20830;-61
2021/11/22 05:01:42;;;;;;;3.15;0.30;;;;;;;;;;5016981;28;20036;-61
2021/11/22 05:04:12;;;;;;;4.38;0.50;;;;;;;;;;5017609;28;20033;-60
2021/11/22 05:06:40;;;;;;;0.43;0.30;;;;;;;;;;5014161;28;20057;-60
2021/11/22 05:09:11;;;;;;;4.97;0.52;;;;;;;;;;5014834;28;20028;-61
2021/11/22 05:11:36;;;;;;;1.55;0.60;;;;;;;;;;5030600;28;20029;-60
2021/11/22 05:14:06;;;;;;;0.85;0.38;;;;;;;;;;5015878;28;20029;-60
2021/11/22 05:16:31;;;;;;;0.75;0.40;;;;;;;;;;5017868;28;20498;-61
2021/11/22 05:18:57;;;;;;;1.55;0.57;;;;;;;;;;5014605;28;20025;-61
2021/11/22 05:21:29;;;;;;;4.90;1.13;;;;;;;;;;5018402;28;20044;-62
2021/11/22 05:23:57;;;;;;;2.28;0.65;;;;;;;;;;5016634;28;20116;-62
2021/11/22 05:26:22;;;;;;;3.13;1.05;;;;;;;;;;5020207;28;20073;-61
2021/11/22 05:28:48;;;;;;;0.90;0.90;;;;;;;;;;5002261;28;20027;-61
2021/11/22 05:31:16;;;;;;;2.42;0.57;;;;;;;;;;5015310;28;20036;-62
2021/11/22 05:33:41;;;;;;;4.05;0.65;;;;;;;;;;5017989;28;20046;-62
2021/11/22 05:36:08;;;;;;;2.47;0.90;;;;;;;;;;5013600;28;20035;-63
2021/11/22 05:38:36;;;;;;;4.95;1.58;;;;;;;;;;5005290;28;22139;-64
2021/11/22 05:41:02;;;;;;;1.20;0.70;;;;;;;;;;5014865;28;20486;-62
2021/11/22 05:43:28;;;;;;;0.75;0.60;;;;;;;;;;5014866;28;20051;-62
2021/11/22 05:45:56;;;;;;;0.80;0.80;;;;;;;;;;5027862;28;20033;-62
2021/11/22 05:48:23;;;;;;;4.35;1.02;;;;;;;;;;5015804;28;20038;-62
2021/11/22 05:50:55;;;;;;;1.73;0.95;;;;;;;;;;4996832;28;20041;-62
2021/11/22 05:53:21;;;;;;;5.15;2.75;;;;;;;;;;5019526;28;20057;-62
2021/11/22 05:55:52;;;;;;;1.98;1.45;;;;;;;;;;5011302;28;20033;-62
2021/11/22 05:58:20;;;;;;;2.40;1.05;;;;;;;;;;5003155;28;20123;-63
2021/11/22 06:00:50;;;;;;;8.13;0.77;;;;;;;;;;4996889;28;20039;-63
2021/11/22 06:03:18;;;;;;;2.03;0.88;;;;;;;;;;5014976;28;20037;-63
2021/11/22 06:05:46;;;;;;;4.72;1.10;;;;;;;;;;5012694;28;20542;-62
2021/11/22 06:08:15;;;;;;;1.85;0.93;;;;;;;;;;4999853;28;20134;-64
2021/11/22 06:10:43;;;;;;;3.20;0.60;;;;;;;;;;5014957;28;20361;-62
2021/11/22 06:13:11;;;;;;;4.40;0.75;;;;;;;;;;5015384;28;20032;-63
2021/11/22 06:15:42;;;;;;;4.80;0.63;;;;;;;;;;5015164;28;20582;-63
2021/11/22 06:18:10;;;;;;;3.70;0.90;;;;;;;;;;5000132;28;20037;-62
2021/11/22 06:20:36;;;;;;;1.38;0.47;;;;;;;;;;5023701;28;20020;-64
2021/11/22 06:23:04;;;;;;;3.05;0.98;;;;;;;;;;5020220;28;20086;-63
2021/11/22 06:25:32;;;;;;;5.43;1.05;;;;;;;;;;5015358;28;20029;-64
2021/11/22 06:28:00;;;;;;;2.65;1.20;;;;;;;;;;5004240;28;20052;-63
2021/11/22 06:30:26;;;;;;;4.47;0.82;;;;;;;;;;5013304;28;20112;-63
2021/11/22 06:32:53;;;;;;;3.08;0.70;;;;;;;;;;5014314;28;20026;-63
2021/11/22 06:35:19;;;;;;;8.45;1.40;;;;;;;;;;5014025;28;20036;-63
2021/11/22 06:37:51;;;;;;;0.88;0.70;;;;;;;;;;5030798;28;20029;-64
2021/11/22 06:40:16;;;;;;;1.13;0.77;;;;;;;;;;5016677;28;20118;-63
2021/11/22 06:42:44;;;;;;;3.83;1.20;;;;;;;;;;5013838;28;20025;-63
2021/11/22 06:45:10;;;;;;;3.28;1.58;;;;;;;;;;5016957;28;20055;-64
2021/11/22 06:47:38;;;;;;;3.97;1.35;;;;;;;;;;5014336;28;20108;-65
2021/11/22 06:50:04;;;;;;;7.15;2.30;;;;;;;;;;5021661;28;20146;-63
2021/11/22 06:52:40;;;;;;;5.30;1.83;;;;;;;;;;4995616;28;20050;-64
2021/11/22 06:55:08;;;;;;;9.85;1.80;;;;;;;;;;5004026;28;20049;-63
2021/11/22 06:57:41;;;;;;;3.90;1.95;;;;;;;;;;5013218;28;20021;-64
2021/11/22 07:00:20;;;;;;;7.63;1.48;;;;;;;;;;5002866;28;20033;-62
2021/11/22 07:02:55;;;;;;;3.08;1.17;;;;;;;;;;5014035;28;20033;-63
2021/11/22 07:05:24;;;;;;;1.08;0.90;;;;;;;;;;5014955;28;20044;-65
2021/11/22 07:07:50;;;;;;;1.15;0.93;;;;;;;;;;5009197;28;20029;-63
2021/11/22 07:10:20;;;;;;;1.52;1.15;;;;;;;;;;5020906;28;20173;-65
2021/11/22 07:12:51;;;;;;;2.25;1.17;;;;;;;;;;5021239;28;20033;-64
2021/11/22 07:15:20;;;;;;;6.75;1.20;;;;;;;;;;5036884;28;20064;-63
2021/11/22 07:17:47;;;;;;;2.05;0.88;;;;;;;;;;5023025;28;21199;-63
2021/11/22 07:20:12;;;;;;;1.65;1.10;;;;;;;;;;5023799;28;20057;-63
2021/11/22 07:22:41;;;;;;;5.70;1.63;;;;;;;;;;5019966;28;20576;-64
2021/11/22 07:25:11;;;;;;;2.17;1.00;;;;;;;;;;5022052;28;20037;-64
2021/11/22 07:27:39;;;;;;;1.33;1.13;;;;;;;;;;5010972;28;20033;-64
2021/11/22 07:30:08;;;;;;;1.75;0.80;;;;;;;;;;5025744;28;20021;-64
2021/11/22 07:32:36;;;;;;;7.05;1.30;;;;;;;;;;5018395;28;20032;-64
2021/11/22 07:35:04;;;;;;;1.30;0.98;;;;;;;;;;5004309;28;20029;-63
2021/11/22 07:37:29;;;;;;;2.13;1.02;;;;;;;;;;5016974;28;20040;-63
2021/11/22 07:43:44;;;;;;;6.95;3.15;;;;;;;;;;5022167;28;20036;-64
2021/11/22 07:49:49;;;;;;;2.00;1.05;;;;;;;;;;5022100;28;20575;-63
2021/11/22 07:52:19;;;;;;;1.80;0.82;;;;;;;;;;5023925;28;20055;-63
2021/11/22 07:54:52;;;;;;;3.45;1.13;;;;;;;;;;5011839;28;20049;-63
2021/11/22 07:57:22;;;;;;;2.13;0.80;;;;;;;;;;5011628;28;20143;-62
2021/11/22 07:59:53;;;;;;;4.05;1.52;;;;;;;;;;5023099;28;20037;-62
2021/11/22 08:02:21;;;;;;;1.65;1.15;;;;;;;;;;5007804;28;20025;-62
2021/11/22 08:04:47;;;;;;;0.98;0.75;;;;;;;;;;5023819;28;20025;-63
2021/11/22 08:07:17;;;;;;;1.27;1.10;;;;;;;;;;5024055;28;20045;-64
2021/11/22 08:10:00;;;;;;;1.77;1.23;;;;;;;;;;5020079;28;20124;-63
2021/11/22 08:12:28;;;;;;;2.67;1.40;;;;;;;;;;5023141;28;20124;-62
2021/11/22 08:14:57;;;;;;;6.00;1.40;;;;;;;;;;5007363;28;20029;-65
2021/11/22 08:17:28;;;;;;;3.97;1.33;;;;;;;;;;5024079;28;20029;-62
2021/11/22 08:19:54;;;;;;;5.43;1.17;;;;;;;;;;5019877;28;20127;-63
2021/11/22 08:22:26;;;;;;;1.48;1.13;;;;;;;;;;5017697;28;20488;-63
2021/11/22 08:24:53;;;;;;;2.47;0.90;;;;;;;;;;5020310;28;20068;-64
2021/11/22 08:27:25;;;;;;;2.45;1.00;;;;;;;;;;5008206;28;20032;-63
2021/11/22 08:29:53;;;;;;;2.63;1.25;;;;;;;;;;5005352;28;20026;-62
2021/11/22 08:32:23;;;;;;;2.78;0.85;;;;;;;;;;5017172;28;20100;-61
2021/11/22 08:34:48;;;;;;;2.92;0.77;;;;;;;;;;5016207;28;20675;-60
2021/11/22 08:37:16;;;;;;;4.00;0.90;;;;;;;;;;5015957;28;20025;-61
2021/11/22 08:39:42;;;;;;;4.38;1.10;;;;;;;;;;4985606;28;20108;-63
2021/11/22 08:45:47;;;;;;;11.43;2.03;;;;;;;;;;5018347;28;20028;-60
2021/11/22 08:48:16;;;;;;;2.40;1.15;;;;;;;;;;5017795;28;20068;-62
2021/11/22 08:50:41;;;;;;;5.55;1.00;;;;;;;;;;5016927;28;20029;-63
2021/11/22 08:53:09;;;;;;;1.10;0.80;;;;;;;;;;5019791;28;20044;-63
2021/11/22 08:55:37;;;;;;;1.08;0.93;;;;;;;;;;5024553;28;20044;-62
2021/11/22 08:58:05;;;;;;;1.42;1.30;;;;;;;;;;5017355;28;20094;-62
2021/11/22 09:00:32;;;;;;;1.35;1.20;;;;;;;;;;5018294;28;20565;-62
2021/11/22 09:03:00;;;;;;;1.50;0.52;;;;;;;;;;5018556;28;20037;-62
2021/11/22 09:05:28;;;;;;;4.00;0.90;;;;;;;;;;5003354;28;20812;-63
2021/11/22 09:07:54;;;;;;;1.23;1.00;;;;;;;;;;5021140;28;20047;-63
2021/11/22 09:10:23;;;;;;;1.52;1.00;;;;;;;;;;5020216;28;20039;-63
2021/11/22 09:12:49;;;;;;;3.05;0.73;;;;;;;;;;5022054;28;20488;-61
2021/11/22 09:15:14;;;;;;;3.00;1.00;;;;;;;;;;5018696;28;20028;-62
2021/11/22 09:17:43;;;;;;;4.63;1.05;;;;;;;;;;5016364;28;20033;-61
2021/11/22 09:20:11;;;;;;;2.72;1.35;;;;;;;;;;5018248;28;20067;-61
2021/11/22 09:22:39;;;;;;;1.10;0.90;;;;;;;;;;5015192;28;20082;-61
2021/11/22 09:25:06;;;;;;;2.50;0.93;;;;;;;;;;5018086;28;20111;-61
2021/11/22 09:27:34;;;;;;;1.65;1.05;;;;;;;;;;5017355;28;20025;-62
2021/11/22 09:30:06;;;;;;;5.22;0.98;;;;;;;;;;5017499;28;20112;-61
2021/11/22 09:32:31;;;;;;;1.80;1.05;;;;;;;;;;5022101;28;20723;-61
2021/11/22 09:35:01;;;;;;;3.40;1.10;;;;;;;;;;5016337;28;21001;-61
2021/11/22 09:37:26;;;;;;;5.15;0.75;;;;;;;;;;5005769;28;20025;-61
2021/11/22 09:39:52;;;;;;;4.85;1.20;;;;;;;;;;5015931;28;20018;-62
2021/11/22 09:42:22;;;;;;;9.73;2.55;;;;;;;;;;5017275;28;20116;-61
2021/11/22 09:44:50;;;;;;;6.25;1.98;;;;;;;;;;5016459;28;20021;-61
2021/11/22 09:47:19;;;;;;;4.82;1.77;;;;;;;;;;5018145;28;20044;-62
2021/11/22 09:49:47;;;;;;;4.88;1.85;;;;;;;;;;5015566;28;20033;-61
2021/11/22 09:52:15;;;;;;;7.60;1.98;;;;;;;;;;5030631;28;20075;-61
2021/11/22 09:54:42;;;;;;;4.85;1.92;;;;;;;;;;5011409;28;21046;-63
2021/11/22 09:57:14;;;;;;;7.82;1.88;;;;;;;;;;5014074;28;20025;-60
2021/11/22 09:59:42;;;;;;;4.68;1.15;;;;;;;;;;5015381;28;20412;-62
2021/11/22 10:02:12;;;;;;;6.50;1.67;;;;;;;;;;5015383;28;20025;-61
2021/11/22 10:04:40;;;;;;;5.32;1.17;;;;;;;;;;5016790;28;20674;-60
2021/11/22 10:07:10;;;;;;;3.90;1.13;;;;;;;;;;5016810;28;20099;-60
2021/11/22 10:09:42;;;;;;;3.65;1.05;;;;;;;;;;5014100;28;20140;-61
2021/11/22 10:12:11;;;;;;;3.33;0.73;;;;;;;;;;5005604;28;20033;-62
2021/11/22 10:14:42;;;;;;;7.20;1.40;;;;;;;;;;5014026;28;20209;-61
2021/11/22 10:17:40;;;;;;;1.08;0.57;;;;;;;;;;5015280;28;20033;-60
2021/11/22 10:20:06;;;;;;;1.13;0.90;;;;;;;;;;5006032;28;20091;-62
2021/11/22 10:22:47;;;;;;;1.33;0.90;;;;;;;;;;5014510;28;20679;-62
2021/11/22 10:25:16;;;;;;;8.48;0.98;;;;;;;;;;5014568;28;20063;-61
2021/11/22 10:27:44;;;;;;;1.75;0.60;;;;;;;;;;5002825;28;20469;-61
2021/11/22 10:30:19;;;;;;;2.42;0.30;;;;;;;;;;5015297;28;20120;-61
2021/11/22 10:32:44;;;;;;;;;;;;;;;;;;5022644;28;20116;-61
2021/11/22 10:35:14;;;;;;;7.05;1.17;;;;;;;;;;5015062;28;19913;-62
2021/11/22 10:37:55;;;;;;;7.47;0.80;;;;;;;;;;5031701;28;20473;-60
2021/11/22 10:40:23;;;;;;;1.15;0.65;;;;;;;;;;5014657;28;20041;-60
2021/11/22 10:42:49;;;;;;;0.75;0.52;;;;;;;;;;5015232;28;20182;-61
2021/11/22 10:45:30;;;;;;;2.40;0.60;;;;;;;;;;5001431;28;20033;-61
2021/11/22 10:47:56;;;;;;;1.40;0.63;;;;;;;;;;5014779;28;20041;-60
2021/11/22 10:50:25;;;;;;;8.60;1.00;;;;;;;;;;5012393;28;20028;-59
2021/11/22 10:52:59;;;;;;;2.80;0.90;;;;;;;;;;5015685;28;20033;-59
2021/11/22 10:55:27;;;;;;;7.25;0.77;;;;;;;;;;5014984;28;20034;-59
2021/11/22 10:57:53;;;;;;;1.00;0.52;;;;;;;;;;5018376;28;20040;-59
2021/11/22 11:00:21;;;;;;;0.73;0.70;;;;;;;;;;5012561;28;20289;-59
2021/11/22 11:02:50;;;;;;;2.30;0.80;;;;;;;;;;5015283;28;20675;-59
2021/11/22 11:05:29;;;;;;;9.85;0.85;;;;;;;;;;5021787;28;21526;-60
2021/11/22 11:08:05;;;;;;;4.43;0.73;;;;;;;;;;5015390;28;20052;-60
2021/11/22 11:10:39;;;;;;;2.05;0.57;;;;;;;;;;5029568;28;20040;-61
2021/11/22 11:13:10;;;;;;;2.15;0.70;;;;;;;;;;5018962;28;20904;-60
2021/11/22 11:15:35;;;;;;;7.03;0.73;;;;;;;;;;5014700;28;20029;-59
2021/11/22 11:18:23;;;;;;;1.88;0.60;;;;;;;;;;5014851;28;20029;-60
2021/11/22 11:20:49;;;;;;;6.63;0.70;;;;;;;;;;5008503;28;20033;-59
2021/11/22 11:23:14;;;;;;;2.47;0.93;;;;;;;;;;5014201;28;21966;-59
2021/11/22 11:25:43;;;;;;;1.00;0.63;;;;;;;;;;5014632;28;20036;-59
2021/11/22 11:28:11;;;;;;;1.13;0.52;;;;;;;;;;5013681;28;20033;-59
2021/11/22 11:30:40;;;;;;;2.97;0.80;;;;;;;;;;5020342;28;20021;-59
2021/11/22 11:33:06;;;;;;;4.22;0.68;;;;;;;;;;5014799;28;20993;-59
2021/11/22 11:35:34;;;;;;;5.47;0.63;;;;;;;;;;5029798;28;20034;-60
2021/11/22 11:38:18;;;;;;;5.50;1.23;;;;;;;;;;5015897;28;20312;-60
2021/11/22 11:41:05;;;;;;;3.10;1.13;;;;;;;;;;5027197;28;20037;-59
2021/11/22 11:43:49;;;;;;;2.10;0.20;;;;;;;;;;5015480;28;20138;-60
2021/11/22 11:46:32;;;;;;;1.85;0.60;;;;;;;;;;5020924;28;20756;-60
2021/11/22 11:49:05;;;;;;;2.72;0.25;;;;;;;;;;5017139;28;20053;-60
2021/11/22 11:51:42;;;;;;;2.13;0.63;;;;;;;;;;5014644;28;20042;-59
2021/11/22 11:54:12;;;;;;;0.80;0.40;;;;;;;;;;5013974;28;20465;-60
2021/11/22 11:56:39;;;;;;;2.00;0.77;;;;;;;;;;5014441;28;20029;-59
2021/11/22 11:59:18;;;;;;;1.92;0.35;;;;;;;;;;5018624;28;20475;-59
2021/11/22 12:02:04;;;;;;;2.63;0.45;;;;;;;;;;5018897;28;20041;-59
2021/11/22 12:04:50;;;;;;;1.95;0.30;;;;;;;;;;5019045;28;20037;-59
2021/11/22 12:07:28;;;;;;;4.60;0.50;;;;;;;;;;5009203;28;20122;-59
2021/11/22 12:10:14;;;;;;;3.47;0.50;;;;;;;;;;5017250;28;20040;-60
2021/11/22 12:12:46;;;;;;;1.02;0.43;;;;;;;;;;5016242;28;20625;-60
2021/11/22 12:15:16;;;;;;;1.67;0.40;;;;;;;;;;5008535;28;20424;-60
2021/11/22 12:17:42;;;;;;;3.33;0.50;;;;;;;;;;5017493;28;20055;-60
2021/11/22 12:20:07;;;;;;;1.45;0.40;;;;;;;;;;5019906;28;20394;-60
2021/11/22 12:22:36;;;;;;;2.67;0.52;;;;;;;;;;5018852;28;20344;-60
2021/11/22 12:25:02;;;;;;;0.43;0.25;;;;;;;;;;5030434;28;20503;-61
2021/11/22 12:27:28;;;;;;;2.72;0.30;;;;;;;;;;5023394;28;20151;-60
2021/11/22 12:29:58;;;;;;;4.38;0.60;;;;;;;;;;5023424;28;20027;-61
2021/11/22 12:32:28;;;;;;;1.63;0.40;;;;;;;;;;5024441;28;20029;-61
2021/11/22 12:34:58;;;;;;;1.50;0.15;;;;;;;;;;5018686;28;20580;-60
2021/11/22 12:37:27;;;;;;;1.02;0.75;;;;;;;;;;5018125;28;20037;-61
2021/11/22 12:40:06;;;;;;;4.10;0.25;;;;;;;;;;5017997;28;20144;-61
2021/11/22 12:42:43;;;;;;;1.75;0.50;;;;;;;;;;5009050;28;20205;-60
2021/11/22 12:45:11;;;;;;;5.57;0.25;;;;;;;;;;5015862;28;20029;-59
2021/11/22 12:47:39;;;;;;;1.98;0.38;;;;;;;;;;5018831;28;20025;-59
2021/11/22 12:50:07;;;;;;;3.22;0.40;;;;;;;;;;4997641;28;20037;-60
2021/11/22 12:52:37;;;;;;;4.28;0.55;;;;;;;;;;5020050;28;20495;-60
2021/11/22 12:55:17;;;;;;;5.20;0.52;;;;;;;;;;5017585;28;20143;-60
2021/11/22 12:57:50;;;;;;;2.10;0.22;;;;;;;;;;5022274;28;20051;-60
2021/11/22 13:00:31;;;;;;;2.40;0.22;;;;;;;;;;5017307;28;20029;-61
2021/11/22 13:03:01;;;;;;;5.30;0.52;;;;;;;;;;5017800;28;21311;-60
2021/11/22 13:05:45;;;;;;;0.47;0.30;;;;;;;;;;5017569;28;20032;-60
2021/11/22 13:08:21;;;;;;;1.55;0.35;;;;;;;;;;5020460;28;20081;-60
2021/11/22 13:10:55;;;;;;;1.60;0.40;;;;;;;;;;5015826;28;20029;-61
2021/11/22 13:13:28;;;;;;;2.55;0.43;;;;;;;;;;5014880;28;20112;-61
2021/11/22 13:16:03;;;;;;;5.75;0.63;;;;;;;;;;5013470;28;20029;-59
2021/11/22 13:18:35;;;;;;;1.50;0.52;;;;;;;;;;5017540;28;20033;-61
2021/11/22 13:21:06;;;;;;;6.13;0.73;;;;;;;;;;5018742;28;20033;-59
2021/11/22 13:23:40;;;;;;;6.97;0.43;;;;;;;;;;5018258;28;20045;-61
2021/11/22 13:26:11;;;;;;;1.60;0.25;;;;;;;;;;5016197;28;20041;-60
2021/11/22 13:28:43;;;;;;;3.58;0.38;;;;;;;;;;5016251;28;20057;-60
2021/11/22 13:31:10;;;;;;;2.83;0.68;;;;;;;;;;5022338;28;20035;-59
2021/11/22 13:33:36;;;;;;;1.30;0.40;;;;;;;;;;5016034;28;20040;-60
2021/11/22 13:36:02;;;;;;;1.90;0.30;;;;;;;;;;5014458;28;20365;-60
2021/11/22 13:38:30;;;;;;;3.85;0.30;;;;;;;;;;5015456;28;20065;-60
2021/11/22 13:41:08;;;;;;;2.72;0.30;;;;;;;;;;5023230;28;20041;-60
2021/11/22 13:43:36;;;;;;;1.35;0.30;;;;;;;;;;5002376;28;20074;-60
2021/11/22 13:46:04;;;;;;;7.63;0.60;;;;;;;;;;5021546;28;20037;-60
2021/11/22 13:48:53;;;;;;;0.55;0.25;;;;;;;;;;5017179;28;20170;-60
2021/11/22 13:51:21;;;;;;;7.53;0.70;;;;;;;;;;5025748;28;20025;-60
2021/11/22 13:53:47;;;;;;;3.03;0.35;;;;;;;;;;5017207;28;20050;-60
2021/11/22 13:56:36;;;;;;;2.28;0.10;;;;;;;;;;5016690;28;20026;-61
2021/11/22 13:59:04;;;;;;;3.53;0.38;;;;;;;;;;5000064;28;20029;-60
2021/11/22 14:01:37;;;;;;;1.92;0.35;;;;;;;;;;5014843;28;20021;-60
2021/11/22 14:04:05;;;;;;;0.93;0.52;;;;;;;;;;5016216;28;20052;-60
2021/11/22 14:06:35;;;;;;;2.28;0.73;;;;;;;;;;5013906;28;20115;-61
2021/11/22 14:09:00;;;;;;;1.15;0.38;;;;;;;;;;5015904;28;20029;-60
2021/11/22 14:11:33;;;;;;;1.60;0.65;;;;;;;;;;5018105;28;20021;-60
2021/11/22 14:14:00;;;;;;;2.25;0.60;;;;;;;;;;5014782;28;20451;-59
2021/11/22 14:16:27;;;;;;;3.80;0.52;;;;;;;;;;5017478;28;20393;-61
2021/11/22 14:18:55;;;;;;;9.32;0.90;;;;;;;;;;5016764;28;20103;-60
2021/11/22 14:21:30;;;;;;;1.45;0.60;;;;;;;;;;5015629;28;20075;-60
2021/11/22 14:24:08;;;;;;;3.63;0.63;;;;;;;;;;5015849;28;20024;-61
2021/11/22 14:26:35;;;;;;;4.35;0.93;;;;;;;;;;5016352;28;20087;-60
2021/11/22 14:29:15;;;;;;;4.78;0.60;;;;;;;;;;5016510;28;20091;-61
2021/11/22 14:31:48;;;;;;;2.88;0.70;;;;;;;;;;5015532;28;21953;-61
2021/11/22 14:34:17;;;;;;;2.78;0.35;;;;;;;;;;5014716;28;20028;-59
2021/11/22 14:36:46;;;;;;;3.40;0.60;;;;;;;;;;5014814;28;20120;-60
2021/11/22 14:39:15;;;;;;;1.95;0.55;;;;;;;;;;5015214;28;20029;-60
2021/11/22 14:41:43;;;;;;;5.75;0.73;;;;;;;;;;5002582;28;20037;-61
2021/11/22 14:44:09;;;;;;;2.90;0.73;;;;;;;;;;5013550;28;20037;-61
2021/11/22 14:46:47;;;;;;;1.90;0.45;;;;;;;;;;5012478;28;20029;-59
2021/11/22 14:49:18;;;;;;;2.63;0.80;;;;;;;;;;5015969;28;20037;-60
2021/11/22 14:51:45;;;;;;;1.20;0.68;;;;;;;;;;5016583;28;20025;-60
2021/11/22 14:54:23;;;;;;;3.88;0.70;;;;;;;;;;5013833;28;20072;-60
2021/11/22 14:56:51;;;;;;;2.38;0.43;;;;;;;;;;5015242;28;20436;-60
2021/11/22 14:59:21;;;;;;;1.85;0.85;;;;;;;;;;5011929;28;20029;-61
2021/11/22 15:01:51;;;;;;;0.88;0.50;;;;;;;;;;5014512;28;20064;-60
2021/11/22 15:04:25;;;;;;;2.72;0.77;;;;;;;;;;5013682;28;20120;-60
2021/11/22 15:07:09;;;;;;;8.45;1.30;;;;;;;;;;5011365;28;20781;-61
2021/11/22 15:09:38;;;;;;;3.97;0.77;;;;;;;;;;5015183;28;20040;-61
2021/11/22 15:12:12;;;;;;;4.88;0.77;;;;;;;;;;5011876;28;20035;-60